Time;durP1;ratioP1;P1;durP2;ratioP2;P2;SDS_P1;SDS_P2;PMS_P1;PMS_P2;Temp;Humidity;BMP_temperature;BMP_pressure;BME280_temperature;BME280_humidity;BME280_pressure;Samples;Min_cycle;Max_cycle;Signal;HPM_P1;HPM_P2
2023/12/17 00:00:47;;;;;;;32.88;13.77;;;4.20;99.90;;;;;;4952735;28;20069;-56
2023/12/17 00:03:13;;;;;;;18.05;10.55;;;4.10;99.90;;;;;;4946337;29;20035;-53
2023/12/17 00:05:38;;;;;;;26.42;12.52;;;4.10;99.90;;;;;;4951259;29;20028;-54
2023/12/17 00:08:04;;;;;;;24.48;11.95;;;3.90;99.90;;;;;;4950967;29;20039;-53
2023/12/17 00:10:30;;;;;;;23.30;12.32;;;3.80;99.90;;;;;;4951027;29;20391;-55
2023/12/17 00:12:55;;;;;;;20.98;11.23;;;3.70;99.90;;;;;;4950787;29;20023;-58
2023/12/17 00:15:21;;;;;;;23.48;11.27;;;3.60;99.90;;;;;;4933947;29;20035;-54
2023/12/17 00:17:46;;;;;;;24.85;12.50;;;3.60;99.90;;;;;;4951022;29;20035;-56
2023/12/17 00:20:12;;;;;;;25.88;14.50;;;3.50;99.90;;;;;;4933763;29;20027;-59
2023/12/17 00:22:37;;;;;;;25.55;13.13;;;3.50;99.90;;;;;;4950598;29;20024;-57
2023/12/17 00:25:03;;;;;;;24.73;12.35;;;3.50;99.90;;;;;;4950822;29;20034;-57
2023/12/17 00:27:29;;;;;;;22.52;12.80;;;3.50;99.90;;;;;;4950683;29;20035;-59
2023/12/17 00:29:54;;;;;;;28.67;14.57;;;3.50;99.90;;;;;;4950978;29;20027;-56
2023/12/17 00:32:20;;;;;;;32.63;11.65;;;3.50;99.90;;;;;;4951040;29;20032;-56
2023/12/17 00:34:45;;;;;;;27.48;13.77;;;3.60;99.90;;;;;;4933782;29;20059;-58
2023/12/17 00:37:11;;;;;;;23.08;12.00;;;3.50;99.90;;;;;;4972001;23;20026;-47
2023/12/17 00:39:36;;;;;;;26.10;14.85;;;3.60;99.90;;;;;;4968688;28;20116;-52
2023/12/17 00:42:02;;;;;;;25.65;12.25;;;3.60;99.90;;;;;;4969586;28;20027;-50
2023/12/17 00:44:27;;;;;;;27.45;13.05;;;3.60;99.90;;;;;;4969700;28;20397;-54
2023/12/17 00:46:53;;;;;;;25.85;12.68;;;3.60;99.90;;;;;;4969725;28;20558;-54
2023/12/17 00:49:18;;;;;;;21.88;13.30;;;3.60;99.90;;;;;;4969752;28;20023;-52
2023/12/17 00:51:44;;;;;;;22.02;12.93;;;3.60;99.90;;;;;;4969605;28;20582;-53
2023/12/17 00:54:09;;;;;;;22.15;13.25;;;3.60;99.90;;;;;;4969519;28;20099;-50
2023/12/17 00:56:35;;;;;;;24.27;11.68;;;3.70;99.90;;;;;;4952332;28;20038;-53
2023/12/17 00:59:00;;;;;;;23.88;13.43;;;3.80;99.90;;;;;;4952396;28;20026;-51
2023/12/17 01:01:26;;;;;;;29.25;13.77;;;3.80;99.90;;;;;;4969455;28;20054;-51
2023/12/17 01:03:52;;;;;;;27.17;13.05;;;3.80;99.90;;;;;;4969460;28;20379;-49
2023/12/17 01:06:17;;;;;;;24.40;14.60;;;3.90;99.90;;;;;;4969522;28;20045;-48
2023/12/17 01:08:43;;;;;;;29.85;15.52;;;3.90;99.90;;;;;;4969490;28;20042;-50
2023/12/17 01:11:08;;;;;;;26.92;13.27;;;3.80;99.90;;;;;;4969319;28;20070;-51
2023/12/17 01:13:34;;;;;;;25.85;12.60;;;3.80;99.90;;;;;;4969377;28;20074;-51
2023/12/17 01:16:00;;;;;;;25.02;13.82;;;3.80;99.90;;;;;;4969390;28;20034;-53
2023/12/17 01:18:25;;;;;;;23.02;12.25;;;3.80;99.90;;;;;;4969446;28;20059;-55
2023/12/17 01:20:51;;;;;;;27.83;12.15;;;3.80;99.90;;;;;;4969385;28;20457;-52
2023/12/17 01:23:16;;;;;;;24.20;12.70;;;3.80;99.90;;;;;;4969622;28;20039;-50
2023/12/17 01:25:42;;;;;;;25.52;14.35;;;3.80;99.90;;;;;;4969675;28;20023;-53
2023/12/17 01:28:07;;;;;;;22.10;12.98;;;3.80;99.90;;;;;;4969155;28;20537;-52
2023/12/17 01:30:33;;;;;;;21.40;13.55;;;3.80;99.90;;;;;;4951945;28;20038;-51
2023/12/17 01:32:58;;;;;;;20.88;13.77;;;3.80;99.90;;;;;;4969112;28;20027;-52
2023/12/17 01:35:24;;;;;;;25.08;13.55;;;3.70;99.90;;;;;;4969277;28;20049;-51
2023/12/17 01:37:49;;;;;;;24.38;15.77;;;3.70;99.90;;;;;;4968751;28;20039;-53
2023/12/17 01:40:15;;;;;;;25.02;13.68;;;3.70;99.90;;;;;;4935945;28;20039;-51
2023/12/17 01:42:40;;;;;;;28.75;14.57;;;3.60;99.90;;;;;;4968926;28;20023;-51
2023/12/17 01:45:06;;;;;;;29.10;13.52;;;3.60;99.90;;;;;;4969021;28;20042;-51
2023/12/17 01:47:32;;;;;;;34.30;15.30;;;3.60;99.90;;;;;;4951800;28;20110;-54
2023/12/17 01:49:57;;;;;;;21.90;14.90;;;3.50;99.90;;;;;;4969005;28;20031;-51
2023/12/17 01:52:23;;;;;;;25.77;14.50;;;3.50;99.90;;;;;;4971686;28;20023;-50
2023/12/17 01:54:49;;;;;;;22.55;13.60;;;3.50;99.90;;;;;;4954873;28;20030;-49
2023/12/17 01:57:14;;;;;;;26.92;14.15;;;3.60;99.90;;;;;;4954865;28;20462;-51
2023/12/17 01:59:41;;;;;;;32.92;15.63;;;3.60;99.90;;;;;;4954715;28;20045;-50
2023/12/17 02:02:11;;;;;;;27.92;15.77;;;3.60;99.90;;;;;;4972133;28;20470;-51
2023/12/17 02:04:37;;;;;;;29.08;15.65;;;3.60;99.90;;;;;;4955160;28;20059;-50
2023/12/17 02:07:03;;;;;;;26.02;14.82;;;3.70;99.90;;;;;;4972627;28;20103;-53
2023/12/17 02:09:28;;;;;;;29.08;16.25;;;3.80;99.90;;;;;;4972705;28;20027;-49
2023/12/17 02:11:54;;;;;;;29.38;14.82;;;3.90;99.90;;;;;;4972529;28;20027;-52
2023/12/17 02:14:19;;;;;;;28.70;16.17;;;3.90;99.90;;;;;;4954479;28;20034;-53
2023/12/17 02:16:45;;;;;;;25.60;13.85;;;3.90;99.90;;;;;;4971968;28;20050;-49
2023/12/17 02:19:10;;;;;;;25.92;15.00;;;3.90;99.90;;;;;;4971981;28;20037;-49
2023/12/17 02:21:36;;;;;;;26.17;14.50;;;4.00;99.90;;;;;;4971726;28;20031;-52
2023/12/17 02:24:01;;;;;;;21.67;13.13;;;4.00;99.90;;;;;;4954308;28;20466;-49
2023/12/17 02:26:27;;;;;;;34.40;14.60;;;4.10;99.90;;;;;;4971875;28;20022;-53
2023/12/17 02:28:52;;;;;;;25.83;13.85;;;4.00;99.90;;;;;;4971574;28;20540;-49
2023/12/17 02:31:18;;;;;;;21.85;13.70;;;4.10;99.90;;;;;;4971580;28;20062;-53
2023/12/17 02:33:46;;;;;;;20.60;12.95;;;4.10;99.90;;;;;;4971717;28;20464;-51
2023/12/17 02:36:11;;;;;;;26.17;13.75;;;4.10;99.90;;;;;;4971668;28;20019;-51
2023/12/17 02:38:37;;;;;;;29.55;13.88;;;4.20;99.90;;;;;;4971165;28;20043;-51
2023/12/17 02:41:02;;;;;;;21.30;12.90;;;4.20;99.90;;;;;;4954193;28;20034;-52
2023/12/17 02:43:28;;;;;;;24.25;14.10;;;4.10;99.90;;;;;;4971454;28;20027;-53
2023/12/17 02:45:53;;;;;;;24.55;13.32;;;4.20;99.90;;;;;;4954144;28;20446;-52
2023/12/17 02:48:19;;;;;;;24.63;13.23;;;4.10;99.90;;;;;;4971382;28;20031;-47
2023/12/17 02:50:44;;;;;;;27.85;14.23;;;4.20;99.90;;;;;;4954015;28;20039;-49
2023/12/17 02:53:10;;;;;;;21.95;13.82;;;4.20;99.90;;;;;;4971093;28;20160;-52
2023/12/17 02:55:35;;;;;;;26.67;15.25;;;4.20;99.90;;;;;;4971355;28;20027;-52
2023/12/17 02:58:04;;;;;;;32.42;14.40;;;4.20;99.90;;;;;;4971493;28;20455;-51
2023/12/17 03:00:29;;;;;;;26.23;13.85;;;4.10;99.90;;;;;;4971315;28;20027;-49
2023/12/17 03:02:56;;;;;;;24.63;14.80;;;4.20;99.90;;;;;;4970617;28;20397;-48
2023/12/17 03:05:22;;;;;;;22.35;13.40;;;4.20;99.90;;;;;;4954031;28;20031;-52
2023/12/17 03:07:47;;;;;;;28.25;14.30;;;4.20;99.90;;;;;;4971301;28;20276;-49
2023/12/17 03:10:13;;;;;;;29.50;15.40;;;4.20;99.90;;;;;;4971057;28;20402;-50
2023/12/17 03:12:38;;;;;;;28.08;13.48;;;4.20;99.90;;;;;;4971063;28;20434;-54
2023/12/17 03:15:04;;;;;;;29.02;14.68;;;4.20;99.90;;;;;;4971026;28;20119;-50
2023/12/17 03:17:30;;;;;;;28.27;14.10;;;4.20;99.90;;;;;;4971067;28;20031;-50
2023/12/17 03:19:55;;;;;;;27.20;15.40;;;4.20;99.90;;;;;;4971058;28;20031;-48
2023/12/17 03:22:21;;;;;;;28.50;14.18;;;4.20;99.90;;;;;;4970812;28;20073;-50
2023/12/17 03:24:46;;;;;;;27.10;14.43;;;4.20;99.90;;;;;;4970780;28;20023;-54
2023/12/17 03:27:12;;;;;;;26.63;14.20;;;4.20;99.90;;;;;;4970813;28;20467;-48
2023/12/17 03:29:38;;;;;;;25.42;13.45;;;4.20;99.90;;;;;;4970874;28;20019;-56
2023/12/17 03:32:03;;;;;;;33.60;14.40;;;4.20;99.90;;;;;;4970946;28;20394;-55
2023/12/17 03:34:29;;;;;;;31.58;15.88;;;4.30;99.90;;;;;;4970965;28;20030;-53
2023/12/17 03:36:55;;;;;;;24.75;14.60;;;4.30;99.90;;;;;;4952921;28;20177;-56
2023/12/17 03:39:20;;;;;;;25.70;15.75;;;4.30;99.90;;;;;;4970816;28;20031;-52
2023/12/17 03:41:45;;;;;;;22.95;12.52;;;4.30;99.90;;;;;;4970593;28;20022;-52
2023/12/17 03:44:11;;;;;;;31.27;14.90;;;4.30;99.90;;;;;;4953144;28;20027;-49
2023/12/17 03:46:36;;;;;;;33.25;14.45;;;4.30;99.90;;;;;;4970802;28;20471;-53
2023/12/17 03:49:02;;;;;;;25.42;13.93;;;4.30;99.90;;;;;;4970506;28;20397;-52
2023/12/17 03:51:27;;;;;;;25.67;13.50;;;4.30;99.90;;;;;;4970347;28;20569;-49
2023/12/17 03:53:53;;;;;;;24.00;14.02;;;4.30;99.90;;;;;;4970380;28;20101;-49
2023/12/17 03:56:22;;;;;;;26.17;14.68;;;4.30;99.90;;;;;;4970557;28;20037;-52
2023/12/17 03:58:48;;;;;;;21.25;13.48;;;4.30;99.90;;;;;;4970258;28;20439;-53
2023/12/17 04:01:13;;;;;;;28.90;14.30;;;4.30;99.90;;;;;;4970264;28;20031;-49
2023/12/17 04:03:39;;;;;;;22.35;13.52;;;4.40;99.90;;;;;;4970289;28;20519;-51
2023/12/17 04:06:06;;;;;;;24.10;13.90;;;4.30;99.90;;;;;;4970158;28;20072;-52
2023/12/17 04:08:31;;;;;;;29.52;15.10;;;4.20;99.90;;;;;;4970169;28;20030;-51
2023/12/17 04:10:57;;;;;;;25.20;16.08;;;4.30;99.90;;;;;;4970285;28;20023;-50
2023/12/17 04:13:22;;;;;;;34.55;14.45;;;4.30;99.90;;;;;;4969305;28;20076;-52
2023/12/17 04:15:48;;;;;;;27.73;14.70;;;4.30;99.90;;;;;;4970346;28;20483;-52
2023/12/17 04:18:13;;;;;;;30.58;15.13;;;4.40;99.90;;;;;;4970272;28;20034;-52
2023/12/17 04:20:39;;;;;;;33.97;14.90;;;4.30;99.90;;;;;;4970677;28;20450;-54
2023/12/17 04:23:05;;;;;;;29.33;15.55;;;4.40;99.90;;;;;;4970099;28;20042;-54
2023/12/17 04:25:30;;;;;;;22.77;14.77;;;4.30;99.90;;;;;;4970420;28;20034;-55
2023/12/17 04:27:56;;;;;;;29.35;15.98;;;4.40;99.90;;;;;;4970078;28;20105;-54
2023/12/17 04:30:21;;;;;;;22.85;14.20;;;4.40;99.90;;;;;;4952920;28;20109;-50
2023/12/17 04:32:48;;;;;;;31.70;15.07;;;4.30;99.90;;;;;;4970074;28;20501;-50
2023/12/17 04:35:14;;;;;;;26.55;14.98;;;4.30;99.90;;;;;;4970228;28;20512;-51
2023/12/17 04:37:39;;;;;;;26.52;15.27;;;4.30;99.90;;;;;;4969785;28;20046;-52
2023/12/17 04:40:05;;;;;;;31.23;14.18;;;4.20;99.90;;;;;;4970065;28;20032;-53
2023/12/17 04:42:31;;;;;;;24.25;14.00;;;4.10;99.90;;;;;;4952986;28;20023;-51
2023/12/17 04:44:57;;;;;;;22.55;15.07;;;4.00;99.90;;;;;;4970059;28;20039;-51
2023/12/17 04:47:22;;;;;;;30.00;15.30;;;4.00;99.90;;;;;;4969843;28;20076;-54
2023/12/17 04:49:48;;;;;;;39.15;17.23;;;3.90;99.90;;;;;;4969982;28;20043;-53
2023/12/17 04:52:13;;;;;;;29.15;15.43;;;3.90;99.90;;;;;;4969922;28;20027;-50
2023/12/17 04:54:39;;;;;;;22.70;14.30;;;4.00;99.90;;;;;;4969772;28;20035;-55
2023/12/17 04:57:05;;;;;;;20.00;13.75;;;4.10;99.90;;;;;;4970230;28;20453;-53
2023/12/17 04:59:30;;;;;;;25.92;15.38;;;4.00;99.90;;;;;;4952485;28;20502;-51
2023/12/17 05:01:56;;;;;;;26.38;15.10;;;4.10;99.90;;;;;;4952644;28;20066;-53
2023/12/17 05:04:21;;;;;;;21.55;14.70;;;4.10;99.90;;;;;;4969756;28;20073;-51
2023/12/17 05:06:47;;;;;;;22.75;14.77;;;4.00;99.90;;;;;;4969846;28;20539;-52
2023/12/17 05:09:12;;;;;;;23.58;16.05;;;4.10;99.90;;;;;;4969932;28;20018;-49
2023/12/17 05:11:38;;;;;;;28.15;15.38;;;4.00;99.90;;;;;;4969473;28;20441;-49
2023/12/17 05:14:03;;;;;;;26.10;15.50;;;4.10;99.90;;;;;;4969478;28;20205;-52
2023/12/17 05:16:29;;;;;;;26.48;15.07;;;4.10;99.90;;;;;;4969899;28;20105;-55
2023/12/17 05:18:55;;;;;;;26.83;15.40;;;4.20;99.90;;;;;;4952712;28;20541;-56
2023/12/17 05:21:21;;;;;;;24.33;15.18;;;4.20;99.90;;;;;;4969859;28;20023;-56
2023/12/17 05:23:46;;;;;;;20.95;14.40;;;4.20;99.90;;;;;;4969912;28;20037;-57
2023/12/17 05:26:12;;;;;;;25.95;16.50;;;4.10;99.90;;;;;;4972110;28;20046;-56
2023/12/17 05:28:39;;;;;;;23.98;15.13;;;4.20;99.90;;;;;;4972757;28;20486;-50
2023/12/17 05:31:05;;;;;;;24.55;15.00;;;4.30;99.90;;;;;;4972730;28;20027;-51
2023/12/17 05:33:32;;;;;;;25.27;14.50;;;4.20;99.90;;;;;;4972631;28;20030;-51
2023/12/17 05:35:57;;;;;;;28.05;16.70;;;4.30;99.90;;;;;;4972939;28;20390;-55
2023/12/17 05:38:23;;;;;;;22.13;15.25;;;4.20;99.90;;;;;;4972706;28;20054;-53
2023/12/17 05:40:48;;;;;;;28.75;14.10;;;4.30;99.90;;;;;;4972577;28;20092;-50
2023/12/17 05:43:14;;;;;;;25.45;14.50;;;4.30;99.90;;;;;;4972392;28;20390;-54
2023/12/17 05:45:39;;;;;;;25.02;14.38;;;4.20;99.90;;;;;;4972515;28;20034;-55
2023/12/17 05:48:08;;;;;;;24.45;15.88;;;4.30;99.90;;;;;;4973122;28;20055;-52
2023/12/17 05:50:34;;;;;;;27.73;14.48;;;4.30;99.90;;;;;;4972874;28;20023;-57
2023/12/17 05:52:59;;;;;;;21.27;14.90;;;4.20;99.90;;;;;;4972348;28;20539;-55
2023/12/17 05:55:24;;;;;;;26.33;14.57;;;4.20;99.90;;;;;;4955052;28;20023;-53
2023/12/17 05:57:51;;;;;;;33.78;16.38;;;4.20;99.90;;;;;;4972326;28;20026;-53
2023/12/17 06:00:17;;;;;;;28.60;14.15;;;4.20;99.90;;;;;;4972606;28;20019;-53
2023/12/17 06:02:42;;;;;;;29.48;15.73;;;4.20;99.90;;;;;;4972474;28;20034;-52
2023/12/17 06:05:08;;;;;;;23.90;14.52;;;4.10;99.90;;;;;;4972655;28;20027;-51
2023/12/17 06:07:34;;;;;;;33.30;15.60;;;4.10;99.90;;;;;;4972556;28;20045;-51
2023/12/17 06:09:59;;;;;;;25.90;14.20;;;4.10;99.90;;;;;;4972497;28;20027;-52
2023/12/17 06:12:25;;;;;;;29.00;15.98;;;4.20;99.90;;;;;;4972108;28;20023;-51
2023/12/17 06:14:50;;;;;;;27.48;14.93;;;4.20;99.90;;;;;;4972123;28;20049;-50
2023/12/17 06:17:16;;;;;;;27.77;15.15;;;4.20;99.90;;;;;;4972088;28;20371;-53
2023/12/17 06:19:42;;;;;;;33.10;15.88;;;4.20;99.90;;;;;;4972168;28;20557;-55
2023/12/17 06:22:11;;;;;;;34.05;14.85;;;4.20;99.90;;;;;;4954667;28;20030;-52
2023/12/17 06:24:37;;;;;;;28.63;15.85;;;4.20;99.90;;;;;;4971740;28;20035;-51
2023/12/17 06:27:03;;;;;;;36.30;16.23;;;4.10;99.90;;;;;;4954885;28;20072;-54
2023/12/17 06:29:28;;;;;;;30.88;16.10;;;4.00;99.90;;;;;;4954764;28;20038;-52
2023/12/17 06:31:54;;;;;;;29.20;14.95;;;4.10;99.90;;;;;;4954562;28;20410;-50
2023/12/17 06:34:19;;;;;;;37.83;16.38;;;4.10;99.90;;;;;;4971870;28;20066;-52
2023/12/17 06:36:45;;;;;;;40.17;18.10;;;4.00;99.90;;;;;;4971241;28;20379;-55
2023/12/17 06:39:10;;;;;;;30.10;15.45;;;4.00;99.90;;;;;;4972263;28;20038;-50
2023/12/17 06:41:42;;;;;;;36.60;16.20;;;4.00;99.90;;;;;;4971677;28;20386;-52
2023/12/17 06:44:07;;;;;;;36.72;15.55;;;4.00;99.90;;;;;;4971753;28;20102;-53
2023/12/17 06:46:33;;;;;;;34.63;16.23;;;4.00;99.90;;;;;;4954655;28;20168;-50
2023/12/17 06:48:58;;;;;;;42.00;16.52;;;4.00;99.90;;;;;;4971679;28;20031;-52
2023/12/17 06:51:24;;;;;;;38.80;16.33;;;4.10;99.90;;;;;;4954603;28;20027;-52
2023/12/17 06:53:49;;;;;;;29.88;17.27;;;4.10;99.90;;;;;;4954635;28;20023;-51
2023/12/17 06:56:15;;;;;;;35.03;17.42;;;4.10;99.90;;;;;;4971808;28;20029;-50
2023/12/17 06:58:41;;;;;;;35.42;17.90;;;4.10;99.90;;;;;;4971673;28;20031;-49
2023/12/17 07:01:06;;;;;;;30.23;17.10;;;4.10;99.90;;;;;;4971879;28;20045;-55
2023/12/17 07:03:32;;;;;;;37.53;17.05;;;4.10;99.90;;;;;;4971638;28;20027;-50
2023/12/17 07:05:58;;;;;;;40.40;16.92;;;4.20;99.90;;;;;;4954477;28;20490;-52
2023/12/17 07:08:25;;;;;;;39.00;16.90;;;4.20;99.90;;;;;;4971386;28;20027;-52
2023/12/17 07:10:51;;;;;;;40.20;18.20;;;4.30;99.90;;;;;;4971742;28;20556;-50
2023/12/17 07:13:16;;;;;;;53.00;18.08;;;4.20;99.90;;;;;;4971446;28;20309;-53
2023/12/17 07:15:43;;;;;;;56.50;18.55;;;4.20;99.90;;;;;;4971601;28;20555;-52
2023/12/17 07:18:09;;;;;;;65.30;17.92;;;4.20;99.90;;;;;;4971847;28;20458;-55
2023/12/17 07:20:34;;;;;;;56.70;18.65;;;4.10;99.90;;;;;;4971627;28;20030;-54
2023/12/17 07:23:00;;;;;;;44.92;18.10;;;4.00;99.90;;;;;;4971102;28;20027;-50
2023/12/17 07:25:26;;;;;;;55.67;18.70;;;4.00;99.90;;;;;;4971482;28;20030;-52
2023/12/17 07:27:53;;;;;;;54.05;17.52;;;4.00;99.90;;;;;;4971744;28;20053;-54
2023/12/17 07:30:18;;;;;;;48.38;17.08;;;3.90;99.90;;;;;;4971451;28;20023;-54
2023/12/17 07:32:44;;;;;;;45.10;16.35;;;3.90;99.90;;;;;;4971184;28;20569;-53
2023/12/17 07:35:09;;;;;;;38.15;15.65;;;3.80;99.90;;;;;;4971295;28;20027;-54
2023/12/17 07:37:35;;;;;;;61.88;18.00;;;3.80;99.90;;;;;;4970896;28;20104;-54
2023/12/17 07:40:01;;;;;;;35.00;17.45;;;3.80;99.90;;;;;;4971211;28;20039;-52
2023/12/17 07:42:26;;;;;;;47.20;15.93;;;3.80;99.90;;;;;;4971213;28;20041;-53
2023/12/17 07:44:52;;;;;;;60.75;15.98;;;3.80;99.90;;;;;;4953726;28;20037;-54
2023/12/17 07:47:18;;;;;;;37.42;15.70;;;3.80;99.90;;;;;;4971169;28;20390;-53
2023/12/17 07:49:43;;;;;;;59.97;15.27;;;3.70;99.90;;;;;;4971101;28;20427;-52
2023/12/17 07:52:09;;;;;;;40.67;14.18;;;3.80;99.90;;;;;;4970742;28;20027;-55
2023/12/17 07:54:34;;;;;;;39.47;13.80;;;3.80;99.90;;;;;;4970790;28;20440;-52
2023/12/17 07:57:00;;;;;;;35.42;15.00;;;3.80;99.90;;;;;;4970833;28;20027;-57
2023/12/17 07:59:26;;;;;;;31.95;13.65;;;3.80;99.90;;;;;;4970879;28;20029;-52
2023/12/17 08:01:51;;;;;;;43.55;13.10;;;3.90;99.90;;;;;;4971009;28;20034;-52
2023/12/17 08:04:18;;;;;;;30.80;12.23;;;3.90;99.90;;;;;;4970681;28;20057;-51
2023/12/17 08:06:43;;;;;;;42.13;11.77;;;4.00;99.90;;;;;;4970716;28;20038;-51
2023/12/17 08:09:10;;;;;;;36.65;11.30;;;4.00;99.90;;;;;;4970563;28;20433;-52
2023/12/17 08:11:35;;;;;;;20.80;10.57;;;4.10;99.90;;;;;;4970570;28;20033;-53
2023/12/17 08:14:01;;;;;;;48.20;11.25;;;4.10;99.90;;;;;;4970591;28;20502;-53
2023/12/17 08:16:26;;;;;;;26.88;11.60;;;4.10;99.90;;;;;;4953555;28;20027;-56
2023/12/17 08:18:52;;;;;;;34.40;12.18;;;4.10;99.90;;;;;;4970759;28;20497;-50
2023/12/17 08:21:17;;;;;;;23.60;11.25;;;4.10;99.90;;;;;;4970198;28;20023;-56
2023/12/17 08:23:43;;;;;;;25.48;12.35;;;4.00;99.90;;;;;;4953007;28;20393;-52
2023/12/17 08:26:10;;;;;;;41.03;13.95;;;4.00;99.90;;;;;;4970393;28;20030;-52
2023/12/17 08:28:36;;;;;;;28.13;12.73;;;4.10;99.90;;;;;;4970141;28;20069;-53
2023/12/17 08:31:04;;;;;;;24.63;12.00;;;4.10;99.90;;;;;;4970256;28;20031;-54
2023/12/17 08:33:30;;;;;;;40.35;14.10;;;4.20;99.90;;;;;;4970502;28;20015;-50
2023/12/17 08:35:56;;;;;;;42.63;13.50;;;4.30;99.90;;;;;;4970070;28;20023;-50
2023/12/17 08:38:21;;;;;;;56.17;13.18;;;4.10;99.90;;;;;;4969930;28;20494;-50
2023/12/17 08:40:47;;;;;;;37.10;12.65;;;4.10;99.90;;;;;;4970362;28;20038;-52
2023/12/17 08:43:12;;;;;;;21.88;12.55;;;4.10;99.90;;;;;;4952646;28;20031;-55
2023/12/17 08:45:38;;;;;;;47.20;13.25;;;4.00;99.90;;;;;;4970142;28;20027;-56
2023/12/17 08:48:04;;;;;;;38.53;13.43;;;4.00;99.90;;;;;;4969912;28;20035;-52
2023/12/17 08:50:30;;;;;;;29.25;13.60;;;4.00;99.90;;;;;;4970044;28;20513;-55
2023/12/17 08:52:55;;;;;;;31.63;14.32;;;4.00;99.90;;;;;;4969934;28;20035;-51
2023/12/17 08:55:21;;;;;;;30.88;13.40;;;4.10;99.90;;;;;;4967302;28;20030;-52
2023/12/17 08:57:47;;;;;;;29.60;13.45;;;4.00;99.90;;;;;;4953291;28;20024;-49
2023/12/17 09:00:13;;;;;;;29.88;13.05;;;4.10;99.90;;;;;;4955679;28;20023;-50
2023/12/17 09:02:39;;;;;;;26.30;14.27;;;4.10;99.90;;;;;;4973362;28;20085;-51
2023/12/17 09:05:05;;;;;;;23.77;13.15;;;4.10;99.90;;;;;;4973369;28;20070;-49
2023/12/17 09:07:31;;;;;;;25.58;12.55;;;4.10;99.90;;;;;;4955730;28;20027;-48
2023/12/17 09:09:57;;;;;;;35.95;13.75;;;4.00;99.90;;;;;;4973487;28;20502;-49
2023/12/17 09:12:22;;;;;;;31.38;14.27;;;4.10;99.90;;;;;;4947552;29;20035;-52
2023/12/17 09:14:48;;;;;;;36.67;16.52;;;4.10;99.90;;;;;;4953714;29;20103;-54
2023/12/17 09:17:13;;;;;;;30.77;15.18;;;4.10;99.90;;;;;;4953999;29;20039;-52
2023/12/17 09:19:39;;;;;;;30.52;16.05;;;4.10;99.90;;;;;;4975082;28;20110;-50
2023/12/17 09:22:05;;;;;;;34.78;17.15;;;4.20;99.90;;;;;;5028315;28;20025;-50
2023/12/17 09:24:31;;;;;;;32.60;17.38;;;4.20;99.90;;;;;;4976619;28;20035;-48
2023/12/17 09:26:56;;;;;;;36.53;16.60;;;4.20;99.90;;;;;;4967218;28;20051;-47
2023/12/17 09:29:22;;;;;;;40.10;18.15;;;4.10;99.90;;;;;;4953612;29;20058;-49
2023/12/17 09:31:47;;;;;;;36.63;17.23;;;4.20;99.90;;;;;;4936501;29;20019;-47
2023/12/17 09:34:16;;;;;;;34.13;18.95;;;4.20;99.90;;;;;;4936088;29;20031;-47
2023/12/17 09:36:41;;;;;;;36.22;19.55;;;4.30;99.90;;;;;;4936073;28;20023;-53
2023/12/17 09:39:07;;;;;;;47.25;21.25;;;4.30;99.90;;;;;;4959099;28;20084;-51
2023/12/17 09:41:33;;;;;;;39.22;18.63;;;4.30;99.90;;;;;;4972587;28;20031;-49
2023/12/17 09:43:59;;;;;;;42.95;19.77;;;4.30;99.90;;;;;;4972548;28;20379;-49
2023/12/17 09:46:25;;;;;;;44.85;21.35;;;4.30;99.90;;;;;;4955322;28;20551;-47
2023/12/17 09:48:51;;;;;;;45.40;21.02;;;4.30;99.90;;;;;;4972209;28;20034;-48
2023/12/17 09:51:18;;;;;;;44.58;19.98;;;4.20;99.90;;;;;;4972226;28;20414;-50
2023/12/17 09:53:44;;;;;;;46.55;21.80;;;4.30;99.90;;;;;;4972328;28;20664;-52
2023/12/17 09:56:12;;;;;;;54.20;22.67;;;4.20;99.90;;;;;;4972716;28;20513;-51
2023/12/17 09:58:38;;;;;;;56.72;23.58;;;4.30;99.90;;;;;;4972455;28;20441;-49
2023/12/17 10:01:03;;;;;;;67.47;23.08;;;4.30;99.90;;;;;;4972199;28;20030;-54
2023/12/17 10:03:30;;;;;;;66.47;24.73;;;4.30;99.90;;;;;;4972076;28;20092;-51
2023/12/17 10:05:55;;;;;;;81.70;22.92;;;4.30;99.90;;;;;;4954876;28;20100;-47
2023/12/17 10:08:22;;;;;;;58.13;25.98;;;4.20;99.90;;;;;;4954907;28;20019;-45
2023/12/17 10:10:47;;;;;;;60.50;25.55;;;4.30;99.90;;;;;;4971926;28;20043;-52
2023/12/17 10:13:20;;;;;;;47.95;21.80;;;4.30;99.90;;;;;;4971016;28;20058;-48
2023/12/17 10:15:51;;;;;;;55.75;24.25;;;4.30;99.90;;;;;;4967815;28;20038;-51
2023/12/17 10:18:17;;;;;;;55.13;24.73;;;4.40;99.90;;;;;;5013481;28;20509;-51
2023/12/17 10:20:44;;;;;;;54.17;23.98;;;4.50;99.90;;;;;;4970099;28;20062;-52
2023/12/17 10:23:09;;;;;;;56.78;26.70;;;4.50;99.90;;;;;;4960871;28;20027;-49
2023/12/17 10:25:35;;;;;;;65.90;28.10;;;4.50;99.90;;;;;;4971909;28;20051;-53
2023/12/17 10:28:01;;;;;;;81.57;29.52;;;4.40;99.90;;;;;;4971480;28;20478;-50
2023/12/17 10:30:29;;;;;;;62.85;26.98;;;4.30;99.90;;;;;;4959500;28;20066;-52
2023/12/17 10:32:56;;;;;;;62.15;30.15;;;4.20;99.90;;;;;;4952622;28;20037;-51
2023/12/17 10:35:25;;;;;;;73.40;27.95;;;4.30;99.90;;;;;;4954290;28;20038;-51
2023/12/17 10:38:07;;;;;;;73.15;30.00;;;4.30;99.90;;;;;;4952941;29;20046;-51
2023/12/17 10:40:35;;;;;;;70.75;32.03;;;4.20;99.90;;;;;;4953400;28;20441;-50
2023/12/17 10:43:04;;;;;;;70.80;29.67;;;4.20;99.90;;;;;;4964346;28;20024;-48
2023/12/17 10:45:31;;;;;;;68.85;31.92;;;4.40;99.90;;;;;;4952696;29;20391;-52
2023/12/17 10:47:57;;;;;;;68.95;31.15;;;4.40;99.90;;;;;;4935087;28;20517;-50
2023/12/17 10:50:24;;;;;;;74.60;32.42;;;4.40;99.90;;;;;;4952140;29;20096;-50
2023/12/17 10:52:50;;;;;;;69.65;31.88;;;4.50;99.90;;;;;;4939839;28;20031;-49
2023/12/17 10:55:17;;;;;;;69.32;31.40;;;4.50;99.90;;;;;;4958711;28;20034;-47
2023/12/17 10:57:54;;;;;;;66.20;30.55;;;4.50;99.90;;;;;;4954047;28;20035;-50
2023/12/17 11:00:23;;;;;;;66.88;29.52;;;4.50;99.90;;;;;;4963125;28;20023;-46
2023/12/17 11:02:51;;;;;;;65.28;30.15;;;4.50;99.90;;;;;;4946169;28;20509;-49
2023/12/17 11:05:17;;;;;;;67.18;32.72;;;4.50;99.90;;;;;;4962408;28;20059;-54
2023/12/17 11:07:42;;;;;;;64.88;30.80;;;4.70;99.90;;;;;;4956863;28;20062;-50
2023/12/17 11:10:11;;;;;;;60.38;30.50;;;4.80;99.90;;;;;;4950932;29;20023;-48
2023/12/17 11:12:38;;;;;;;67.90;31.95;;;4.80;99.90;;;;;;4951231;29;20478;-46
2023/12/17 11:15:04;;;;;;;61.03;29.88;;;4.80;99.90;;;;;;4934686;29;20050;-56
2023/12/17 11:17:30;;;;;;;64.68;30.20;;;4.80;99.90;;;;;;4953612;28;20042;-52
2023/12/17 11:19:58;;;;;;;63.00;29.95;;;4.80;99.90;;;;;;4970448;28;20498;-56
2023/12/17 11:22:24;;;;;;;56.03;29.17;;;4.80;99.90;;;;;;4952525;28;20038;-50
2023/12/17 11:25:00;;;;;;;59.10;28.55;;;4.80;99.90;;;;;;4966586;28;20031;-51
2023/12/17 11:27:26;;;;;;;52.67;27.42;;;4.80;99.90;;;;;;4970800;28;20041;-49
2023/12/17 11:29:52;;;;;;;56.42;27.42;;;4.80;99.90;;;;;;4970716;28;20023;-49
2023/12/17 11:32:24;;;;;;;52.38;26.40;;;4.80;99.90;;;;;;4971006;28;20062;-50
2023/12/17 11:34:50;;;;;;;53.22;27.75;;;4.70;99.90;;;;;;4971213;28;20421;-48
2023/12/17 11:37:18;;;;;;;50.95;25.83;;;4.70;99.90;;;;;;4970595;28;20027;-49
2023/12/17 11:39:48;;;;;;;42.63;22.05;;;4.70;99.90;;;;;;4970917;28;20108;-49
2023/12/17 11:42:14;;;;;;;39.78;22.35;;;4.80;99.90;;;;;;4967066;28;20109;-52
2023/12/17 11:44:48;;;;;;;36.28;20.25;;;4.90;99.90;;;;;;4968037;28;20106;-53
2023/12/17 11:47:14;;;;;;;35.38;20.60;;;4.80;99.90;;;;;;4969427;28;20117;-51
2023/12/17 11:49:40;;;;;;;37.67;23.15;;;4.90;99.90;;;;;;4965677;28;20059;-51
2023/12/17 11:52:13;;;;;;;45.13;23.92;;;4.90;99.90;;;;;;4952671;28;20058;-50
2023/12/17 11:54:39;;;;;;;42.88;24.10;;;5.00;99.90;;;;;;4950958;29;20027;-52
2023/12/17 11:57:18;;;;;;;44.90;24.35;;;5.00;99.90;;;;;;4950488;28;20077;-59
2023/12/17 11:59:43;;;;;;;46.15;25.63;;;5.00;99.90;;;;;;4958867;28;20023;-56
2023/12/17 12:02:09;;;;;;;42.03;23.85;;;4.90;99.90;;;;;;4953342;28;20146;-56
2023/12/17 12:04:41;;;;;;;42.08;20.20;;;4.90;99.90;;;;;;4933578;29;20512;-50
2023/12/17 12:07:08;;;;;;;38.30;22.10;;;4.90;99.90;;;;;;4950436;29;20034;-58
2023/12/17 12:09:34;;;;;;;39.10;22.85;;;4.90;99.90;;;;;;4933157;28;20084;-59
2023/12/17 12:11:59;;;;;;;39.90;21.20;;;4.80;99.90;;;;;;4955200;28;20015;-58
2023/12/17 12:14:25;;;;;;;35.33;20.30;;;5.00;99.90;;;;;;4969671;28;20031;-58
2023/12/17 12:16:52;;;;;;;34.90;18.95;;;5.00;99.90;;;;;;4945182;29;20026;-55
2023/12/17 12:19:18;;;;;;;33.78;19.70;;;4.90;99.90;;;;;;4962753;28;20390;-56
2023/12/17 12:21:48;;;;;;;42.33;20.67;;;4.90;99.90;;;;;;4969538;28;20498;-53
2023/12/17 12:24:20;;;;;;;34.40;18.88;;;4.80;99.90;;;;;;4950638;29;20514;-61
2023/12/17 12:26:45;;;;;;;33.10;19.48;;;4.90;99.90;;;;;;4961425;28;20039;-56
2023/12/17 12:29:12;;;;;;;27.92;16.10;;;4.80;99.90;;;;;;4964902;28;20565;-60